createdAt,value
2023-02-10T00:00:06.114Z,72.69
2023-02-10T00:00:16.117Z,72.59
2023-02-10T00:00:26.110Z,72.49
2023-02-10T00:00:36.121Z,72.52
2023-02-10T00:00:46.121Z,72.45
2023-02-10T00:00:56.104Z,72.49
2023-02-10T00:01:06.155Z,72.34
2023-02-10T00:01:16.199Z,72.45
2023-02-10T00:01:26.105Z,72.45
2023-02-10T00:01:36.116Z,72.34
2023-02-10T00:01:46.183Z,72.45
2023-02-10T00:01:56.114Z,72.45
2023-02-10T00:02:06.120Z,72.34
2023-02-10T00:02:16.153Z,72.34
2023-02-10T00:02:26.140Z,72.34
2023-02-10T00:02:36.124Z,72.34
2023-02-10T00:02:46.165Z,72.42
2023-02-10T00:02:56.175Z,72.34
2023-02-10T00:03:06.098Z,72.38
2023-02-10T00:03:16.128Z,72.24
2023-02-10T00:03:26.142Z,72.11
2023-02-10T00:03:36.193Z,72.11
2023-02-10T00:03:46.119Z,72.00
2023-02-10T00:03:56.203Z,71.93
2023-02-10T00:04:06.170Z,71.93
2023-02-10T00:04:16.109Z,71.83
2023-02-10T00:04:26.105Z,71.79
2023-02-10T00:04:36.101Z,71.83
2023-02-10T00:04:46.110Z,71.58
2023-02-10T00:04:56.107Z,71.48
2023-02-10T00:05:06.105Z,71.37
2023-02-10T00:05:16.103Z,71.26
2023-02-10T00:05:26.113Z,71.06
2023-02-10T00:05:36.098Z,70.85
2023-02-10T00:05:46.504Z,70.81
2023-02-10T00:05:56.089Z,70.85
2023-02-10T00:06:06.100Z,70.61
2023-02-10T00:06:16.093Z,70.53
2023-02-10T00:06:26.095Z,70.61
2023-02-10T00:06:36.094Z,70.50
2023-02-10T00:06:46.082Z,70.29
2023-02-10T00:06:56.141Z,70.18
2023-02-10T00:07:06.086Z,69.95
2023-02-10T00:07:16.803Z,69.98
2023-02-10T00:07:26.082Z,69.74
2023-02-10T00:07:36.139Z,69.67
2023-02-10T00:07:46.084Z,69.56
2023-02-10T00:07:56.090Z,69.32
2023-02-10T00:08:06.082Z,69.35
2023-02-10T00:08:16.112Z,69.18
2023-02-10T00:08:26.075Z,69.04
2023-02-10T00:08:36.089Z,69.00
2023-02-10T00:08:46.076Z,68.79
2023-02-10T00:08:56.104Z,68.90
2023-02-10T00:09:06.087Z,68.90
2023-02-10T00:09:16.068Z,69.11
2023-02-10T00:09:26.076Z,69.21
2023-02-10T00:09:36.071Z,69.21
2023-02-10T00:09:46.071Z,68.90
2023-02-10T00:09:56.066Z,68.79
2023-02-10T00:10:06.080Z,68.59
2023-02-10T00:10:16.074Z,68.38
2023-02-10T00:10:26.076Z,68.27
2023-02-10T00:10:36.078Z,67.82
2023-02-10T00:10:46.076Z,67.68
2023-02-10T00:10:56.063Z,67.75
2023-02-10T00:11:06.100Z,67.40
2023-02-10T00:11:16.081Z,67.61
2023-02-10T00:11:26.067Z,67.61
2023-02-10T00:11:36.079Z,67.61
2023-02-10T00:11:46.083Z,67.61
2023-02-10T00:11:56.069Z,67.40
2023-02-10T00:12:06.120Z,67.16
2023-02-10T00:12:16.079Z,67.30
2023-02-10T00:12:26.058Z,67.19
2023-02-10T00:12:36.084Z,66.99
2023-02-10T00:12:46.061Z,67.19
2023-02-10T00:12:56.080Z,67.09
2023-02-10T00:13:06.058Z,67.16
2023-02-10T00:13:16.062Z,67.16
2023-02-10T00:13:26.079Z,66.88
2023-02-10T00:13:36.065Z,66.85
2023-02-10T00:13:46.050Z,66.96
2023-02-10T00:13:56.058Z,66.96
2023-02-10T00:14:06.068Z,66.74
2023-02-10T00:14:16.813Z,66.99
2023-02-10T00:14:26.093Z,66.96
2023-02-10T00:14:36.139Z,66.96
2023-02-10T00:14:46.053Z,66.85
2023-02-10T00:14:56.062Z,66.96
2023-02-10T00:15:06.064Z,66.99
2023-02-10T00:15:16.099Z,66.96
2023-02-10T00:15:26.058Z,66.74
2023-02-10T00:15:36.060Z,67.09
2023-02-10T00:15:46.514Z,67.06
2023-02-10T00:15:56.168Z,67.09
2023-02-10T00:16:06.186Z,66.85
2023-02-10T00:16:16.268Z,67.06
2023-02-10T00:16:26.127Z,66.88
2023-02-10T00:16:36.045Z,66.96
2023-02-10T00:16:46.044Z,67.06
2023-02-10T00:16:56.073Z,67.27
2023-02-10T00:17:06.046Z,67.27
2023-02-10T00:17:16.096Z,67.30
2023-02-10T00:17:26.053Z,67.47
2023-02-10T00:17:36.034Z,67.50
2023-02-10T00:17:46.047Z,67.30
2023-02-10T00:17:56.059Z,67.24
2023-02-10T00:18:06.041Z,66.85
2023-02-10T00:18:16.074Z,66.85
2023-02-10T00:18:26.032Z,66.70
2023-02-10T00:18:36.036Z,66.85
2023-02-10T00:18:46.088Z,66.56
2023-02-10T00:18:56.032Z,66.64
2023-02-10T00:19:06.031Z,66.56
2023-02-10T00:19:16.036Z,66.74
2023-02-10T00:19:26.042Z,66.53
2023-02-10T00:19:36.030Z,66.43
2023-02-10T00:19:46.029Z,66.64
2023-02-10T00:19:56.035Z,66.53
2023-02-10T00:20:06.037Z,66.67
2023-02-10T00:20:16.042Z,66.67
2023-02-10T00:20:26.030Z,66.74
2023-02-10T00:20:36.039Z,66.85
2023-02-10T00:20:46.053Z,66.77
2023-02-10T00:20:56.029Z,66.96
2023-02-10T00:21:06.101Z,66.77
2023-02-10T00:21:16.037Z,66.85
2023-02-10T00:21:26.029Z,67.09
2023-02-10T00:21:36.099Z,66.85
2023-02-10T00:21:46.025Z,67.19
2023-02-10T00:21:56.023Z,67.30
2023-02-10T00:22:06.025Z,67.50
2023-02-10T00:22:16.021Z,67.58
2023-02-10T00:22:26.083Z,67.40
2023-02-10T00:22:36.042Z,67.27
2023-02-10T00:22:46.063Z,67.16
2023-02-10T00:22:56.804Z,67.27
2023-02-10T00:23:06.031Z,67.61
2023-02-10T00:23:16.019Z,67.47
2023-02-10T00:23:26.018Z,67.61
2023-02-10T00:23:36.030Z,67.61
2023-02-10T00:23:46.115Z,67.72
2023-02-10T00:23:56.029Z,67.79
2023-02-10T00:24:06.022Z,67.72
2023-02-10T00:24:16.014Z,67.64
2023-02-10T00:24:26.009Z,67.37
2023-02-10T00:24:36.013Z,67.50
2023-02-10T00:24:46.026Z,67.40
2023-02-10T00:24:56.011Z,67.16
2023-02-10T00:25:06.034Z,67.50
2023-02-10T00:25:16.028Z,67.47
2023-02-10T00:25:26.012Z,67.40
2023-02-10T00:25:36.009Z,67.61
2023-02-10T00:25:46.625Z,67.40
2023-02-10T00:25:56.017Z,67.30
2023-02-10T00:26:06.015Z,67.40
2023-02-10T00:26:16.007Z,67.37
2023-02-10T00:26:26.020Z,67.43
2023-02-10T00:26:36.026Z,67.27
2023-02-10T00:26:46.011Z,67.44
2023-02-10T00:26:56.032Z,67.40
2023-02-10T00:27:06.010Z,67.40
2023-02-10T00:27:15.996Z,67.54
2023-02-10T00:27:26.012Z,67.72
2023-02-10T00:27:36.096Z,67.82
2023-02-10T00:27:45.995Z,67.82
2023-02-10T00:27:56.045Z,67.93
2023-02-10T00:28:06.042Z,67.82
2023-02-10T00:28:16.039Z,68.03
2023-02-10T00:28:26.065Z,67.93
2023-02-10T00:28:36.078Z,68.06
2023-02-10T00:28:46.009Z,67.82
2023-02-10T00:28:56.085Z,67.93
2023-02-10T00:29:05.989Z,68.00
2023-02-10T00:29:16.011Z,67.93
2023-02-10T00:29:27.293Z,67.72
2023-02-10T00:29:35.999Z,67.82
2023-02-10T00:29:45.987Z,67.82
2023-02-10T00:29:55.992Z,67.72
2023-02-10T00:30:05.992Z,67.61
2023-02-10T00:30:16.018Z,67.82
2023-02-10T00:30:26.001Z,67.85
2023-02-10T00:30:35.994Z,67.82
2023-02-10T00:30:46.016Z,67.82
2023-02-10T00:30:56.086Z,67.85
2023-02-10T00:31:06.044Z,67.72
2023-02-10T00:31:16.186Z,67.72
2023-02-10T00:31:26.062Z,67.61
2023-02-10T00:31:36.052Z,67.64
2023-02-10T00:31:45.978Z,67.75
2023-02-10T00:31:55.985Z,67.50
2023-02-10T00:32:06.014Z,67.54
2023-02-10T00:32:15.981Z,67.50
2023-02-10T00:32:25.979Z,67.50
2023-02-10T00:32:36.026Z,67.50
2023-02-10T00:32:46.039Z,67.72
2023-02-10T00:32:55.993Z,67.61
2023-02-10T00:33:06.005Z,67.40
2023-02-10T00:33:15.981Z,67.40
2023-02-10T00:33:25.993Z,67.50
2023-02-10T00:33:36.004Z,67.47
2023-02-10T00:33:45.990Z,67.64
2023-02-10T00:33:56.024Z,67.64
2023-02-10T00:34:06.017Z,67.50
2023-02-10T00:34:16.117Z,67.50
2023-02-10T00:34:25.984Z,67.30
2023-02-10T00:34:36.004Z,67.40
2023-02-10T00:34:45.972Z,67.40
2023-02-10T00:34:55.973Z,67.50
2023-02-10T00:35:06.005Z,67.43
2023-02-10T00:35:16.025Z,67.47
2023-02-10T00:35:25.978Z,67.19
2023-02-10T00:35:36.062Z,67.50
2023-02-10T00:35:46.440Z,67.22
2023-02-10T00:35:56.809Z,67.27
2023-02-10T00:36:05.973Z,67.43
2023-02-10T00:36:15.977Z,67.19
2023-02-10T00:36:25.966Z,67.19
2023-02-10T00:36:35.967Z,67.50
2023-02-10T00:36:45.959Z,67.40
2023-02-10T00:36:55.997Z,67.40
2023-02-10T00:37:05.960Z,67.61
2023-02-10T00:37:15.958Z,67.61
2023-02-10T00:37:25.972Z,67.82
2023-02-10T00:37:35.977Z,67.75
2023-02-10T00:37:45.964Z,67.93
2023-02-10T00:37:56.005Z,67.79
2023-02-10T00:38:05.974Z,68.03
2023-02-10T00:38:15.968Z,68.24
2023-02-10T00:38:25.956Z,68.34
2023-02-10T00:38:35.951Z,68.24
2023-02-10T00:38:45.961Z,68.24
2023-02-10T00:38:55.957Z,68.24
2023-02-10T00:39:05.987Z,68.34
2023-02-10T00:39:15.952Z,68.31
2023-02-10T00:39:25.989Z,68.34
2023-02-10T00:39:35.952Z,68.34
2023-02-10T00:39:45.986Z,68.34
2023-02-10T00:39:56.021Z,68.24
2023-02-10T00:40:05.961Z,68.24
2023-02-10T00:40:15.952Z,68.13
2023-02-10T00:40:25.981Z,68.16
2023-02-10T00:40:35.949Z,68.03
2023-02-10T00:40:45.954Z,68.27
2023-02-10T00:40:55.944Z,68.27
2023-02-10T00:41:05.969Z,68.24
2023-02-10T00:41:15.947Z,68.16
2023-02-10T00:41:25.944Z,68.38
2023-02-10T00:41:35.968Z,68.16
2023-02-10T00:41:45.953Z,68.27
2023-02-10T00:41:55.949Z,68.34
2023-02-10T00:42:05.940Z,68.38
2023-02-10T00:42:15.974Z,68.45
2023-02-10T00:42:32.847Z,68.48
2023-02-10T00:42:35.936Z,68.59
2023-02-10T00:42:45.950Z,68.76
2023-02-10T00:42:55.949Z,68.87
2023-02-10T00:43:06.006Z,68.90
2023-02-10T00:43:15.931Z,69.00
2023-02-10T00:43:25.948Z,69.00
2023-02-10T00:43:35.946Z,69.00
2023-02-10T00:43:45.929Z,68.97
2023-02-10T00:43:55.950Z,68.90
2023-02-10T00:44:05.945Z,69.00
2023-02-10T00:44:15.942Z,69.00
2023-02-10T00:44:25.931Z,69.00
2023-02-10T00:44:35.953Z,69.00
2023-02-10T00:44:45.930Z,68.97
2023-02-10T00:44:55.965Z,69.11
2023-02-10T00:45:05.988Z,69.21
2023-02-10T00:45:15.927Z,69.53
2023-02-10T00:45:26.824Z,69.53
2023-02-10T00:45:35.943Z,69.67
2023-02-10T00:45:47.132Z,69.42
2023-02-10T00:45:55.929Z,69.32
2023-02-10T00:46:05.938Z,69.00
2023-02-10T00:46:16.292Z,68.79
2023-02-10T00:46:25.975Z,68.66
2023-02-10T00:46:35.923Z,68.48
2023-02-10T00:46:46.034Z,68.48
2023-02-10T00:46:56.046Z,68.48
2023-02-10T00:47:05.980Z,68.38
2023-02-10T00:47:15.933Z,68.38
2023-02-10T00:47:25.922Z,68.38
2023-02-10T00:47:36.816Z,68.38
2023-02-10T00:47:45.944Z,68.38
2023-02-10T00:47:55.936Z,68.16
2023-02-10T00:48:05.932Z,68.06
2023-02-10T00:48:15.953Z,67.61
2023-02-10T00:48:25.935Z,67.72
2023-02-10T00:48:35.940Z,67.50
2023-02-10T00:48:45.912Z,67.64
2023-02-10T00:48:55.910Z,67.72
2023-02-10T00:49:05.944Z,67.64
2023-02-10T00:49:15.909Z,67.93
2023-02-10T00:49:25.923Z,67.72
2023-02-10T00:49:36.802Z,67.82
2023-02-10T00:49:45.912Z,68.03
2023-02-10T00:49:56.847Z,67.93
2023-02-10T00:50:05.921Z,68.24
2023-02-10T00:50:15.922Z,68.13
2023-02-10T00:50:25.907Z,68.27
2023-02-10T00:50:35.931Z,68.34
2023-02-10T00:50:45.922Z,68.24
2023-02-10T00:50:55.947Z,68.27
2023-02-10T00:51:05.904Z,68.38
2023-02-10T00:51:16.818Z,68.38
2023-02-10T00:51:25.903Z,68.27
2023-02-10T00:51:35.983Z,68.27
2023-02-10T00:51:45.937Z,68.19
2023-02-10T00:51:55.900Z,68.34
2023-02-10T00:52:05.899Z,68.16
2023-02-10T00:52:15.939Z,68.48
2023-02-10T00:52:25.906Z,68.48
2023-02-10T00:52:35.922Z,68.69
2023-02-10T00:52:45.902Z,68.66
2023-02-10T00:52:55.902Z,68.59
2023-02-10T00:53:05.908Z,68.79
2023-02-10T00:53:15.894Z,68.59
2023-02-10T00:53:25.981Z,68.48
2023-02-10T00:53:35.923Z,68.38
2023-02-10T00:53:45.954Z,68.38
2023-02-10T00:53:55.978Z,68.48
2023-02-10T00:54:06.023Z,68.27
2023-02-10T00:54:15.905Z,68.38
2023-02-10T00:54:25.889Z,68.27
2023-02-10T00:54:35.903Z,68.27
2023-02-10T00:54:45.890Z,68.06
2023-02-10T00:54:55.894Z,68.16
2023-02-10T00:55:05.930Z,67.85
2023-02-10T00:55:15.883Z,67.85
2023-02-10T00:55:25.897Z,67.93
2023-02-10T00:55:35.892Z,67.85
2023-02-10T00:55:46.230Z,67.64
2023-02-10T00:55:56.996Z,67.50
2023-02-10T00:56:05.886Z,67.54
2023-02-10T00:56:15.895Z,67.54
2023-02-10T00:56:25.902Z,67.64
2023-02-10T00:56:35.887Z,67.54
2023-02-10T00:56:45.889Z,67.54
2023-02-10T00:56:55.893Z,67.75
2023-02-10T00:57:05.883Z,67.64
2023-02-10T00:57:15.889Z,67.72
2023-02-10T00:57:25.898Z,67.61
2023-02-10T00:57:35.875Z,67.72
2023-02-10T00:57:45.876Z,67.75
2023-02-10T00:57:55.909Z,68.06
2023-02-10T00:58:05.878Z,68.16
2023-02-10T00:58:16.897Z,68.13
2023-02-10T00:58:25.908Z,68.34
2023-02-10T00:58:36.001Z,68.48
2023-02-10T00:58:46.805Z,68.69
2023-02-10T00:58:55.947Z,68.69
2023-02-10T00:59:05.880Z,68.69
2023-02-10T00:59:15.922Z,68.45
2023-02-10T00:59:25.865Z,68.38
2023-02-10T00:59:35.868Z,68.38
2023-02-10T00:59:46.805Z,68.27
2023-02-10T00:59:55.867Z,68.27
2023-02-10T01:00:05.883Z,68.48
2023-02-10T01:00:15.869Z,68.79
2023-02-10T01:00:25.946Z,68.87
2023-02-10T01:00:36.874Z,68.90
2023-02-10T01:00:46.035Z,68.69
2023-02-10T01:00:55.902Z,68.59
2023-02-10T01:01:05.929Z,68.62
2023-02-10T01:01:15.868Z,68.30
2023-02-10T01:01:25.871Z,68.24
2023-02-10T01:01:35.872Z,68.16
2023-02-10T01:01:45.856Z,68.06
2023-02-10T01:01:55.860Z,68.06
2023-02-10T01:02:05.878Z,67.96
2023-02-10T01:02:15.883Z,67.75
2023-02-10T01:02:25.865Z,67.75
2023-02-10T01:02:35.972Z,67.75
2023-02-10T01:02:45.914Z,68.03
2023-02-10T01:02:55.915Z,67.96
2023-02-10T01:03:06.090Z,67.96
2023-02-10T01:03:15.922Z,68.03
2023-02-10T01:03:25.874Z,67.96
2023-02-10T01:03:35.863Z,68.16
2023-02-10T01:03:45.911Z,68.13
2023-02-10T01:03:55.850Z,68.13
2023-02-10T01:04:05.856Z,68.27
2023-02-10T01:04:15.886Z,68.27
2023-02-10T01:04:25.852Z,68.27
2023-02-10T01:04:35.929Z,68.38
2023-02-10T01:04:45.853Z,68.48
2023-02-10T01:04:55.976Z,68.55
2023-02-10T01:05:05.857Z,68.27
2023-02-10T01:05:15.849Z,68.41
2023-02-10T01:05:25.895Z,68.38
2023-02-10T01:05:35.859Z,68.38
2023-02-10T01:05:46.391Z,68.06
2023-02-10T01:05:55.848Z,68.09
2023-02-10T01:06:05.867Z,68.06
2023-02-10T01:06:15.866Z,68.06
2023-02-10T01:06:25.843Z,68.06
2023-02-10T01:06:35.878Z,67.96
2023-02-10T01:06:45.848Z,67.85
2023-02-10T01:06:55.900Z,67.99
2023-02-10T01:07:05.841Z,67.72
2023-02-10T01:07:15.857Z,67.61
2023-02-10T01:07:25.873Z,67.75
2023-02-10T01:07:35.846Z,67.85
2023-02-10T01:07:45.889Z,67.61
2023-02-10T01:07:55.844Z,67.85
2023-02-10T01:08:05.852Z,67.75
2023-02-10T01:08:15.830Z,68.06
2023-02-10T01:08:25.826Z,67.85
2023-02-10T01:08:35.840Z,68.16
2023-02-10T01:08:45.829Z,68.09
2023-02-10T01:08:55.877Z,68.34
2023-02-10T01:09:06.944Z,68.27
2023-02-10T01:09:15.822Z,68.34
2023-02-10T01:09:25.843Z,68.38
2023-02-10T01:09:35.830Z,68.38
2023-02-10T01:09:45.877Z,68.48
2023-02-10T01:09:55.826Z,68.48
2023-02-10T01:10:05.822Z,68.24
2023-02-10T01:10:15.851Z,68.16
2023-02-10T01:10:26.845Z,68.16
2023-02-10T01:10:35.996Z,68.06
2023-02-10T01:10:45.814Z,68.06
2023-02-10T01:10:55.824Z,68.03
2023-02-10T01:11:05.836Z,68.06
2023-02-10T01:11:15.846Z,68.19
2023-02-10T01:11:25.823Z,68.16
2023-02-10T01:11:35.812Z,68.62
2023-02-10T01:11:45.814Z,68.59
2023-02-10T01:11:55.832Z,68.96
2023-02-10T01:12:06.804Z,69.11
2023-02-10T01:12:15.811Z,69.11
2023-02-10T01:12:25.820Z,69.00
2023-02-10T01:12:36.805Z,69.00
2023-02-10T01:12:45.815Z,68.79
2023-02-10T01:12:55.807Z,68.72
2023-02-10T01:13:05.810Z,68.79
2023-02-10T01:13:16.809Z,68.93
2023-02-10T01:13:25.808Z,69.04
2023-02-10T01:13:35.823Z,69.04
2023-02-10T01:13:45.908Z,69.11
2023-02-10T01:13:56.803Z,69.21
2023-02-10T01:14:05.875Z,69.42
2023-02-10T01:14:15.812Z,69.45
2023-02-10T01:14:25.802Z,69.45
2023-02-10T01:14:35.800Z,69.53
2023-02-10T01:14:45.874Z,69.45
2023-02-10T01:14:55.805Z,69.56
2023-02-10T01:15:05.807Z,69.42
2023-02-10T01:15:15.815Z,69.56
2023-02-10T01:15:25.810Z,69.53
2023-02-10T01:15:35.795Z,69.63
2023-02-10T01:15:46.253Z,69.67
2023-02-10T01:15:55.815Z,69.67
2023-02-10T01:16:06.354Z,69.77
2023-02-10T01:16:15.882Z,69.67
2023-02-10T01:16:25.889Z,69.80
2023-02-10T01:16:35.849Z,69.87
2023-02-10T01:16:45.847Z,69.87
2023-02-10T01:16:55.807Z,69.87
2023-02-10T01:17:05.797Z,69.90
2023-02-10T01:17:15.811Z,70.01
2023-02-10T01:17:26.316Z,69.98
2023-02-10T01:17:35.896Z,70.08
2023-02-10T01:17:45.792Z,70.08
2023-02-10T01:17:55.797Z,70.22
2023-02-10T01:18:05.793Z,70.18
2023-02-10T01:18:15.800Z,70.26
2023-02-10T01:18:25.838Z,70.40
2023-02-10T01:18:35.802Z,70.43
2023-02-10T01:18:45.793Z,70.43
2023-02-10T01:18:56.303Z,70.40
2023-02-10T01:19:05.821Z,70.40
2023-02-10T01:19:15.834Z,70.26
2023-02-10T01:19:25.827Z,70.18
2023-02-10T01:19:35.802Z,70.08
2023-02-10T01:19:45.786Z,70.04
2023-02-10T01:19:55.792Z,69.98
2023-02-10T01:20:05.782Z,70.29
2023-02-10T01:20:18.309Z,70.29
2023-02-10T01:20:25.779Z,70.40
2023-02-10T01:20:35.787Z,70.50
2023-02-10T01:20:45.797Z,70.64
2023-02-10T01:20:55.789Z,70.75
2023-02-10T01:21:06.302Z,70.71
2023-02-10T01:21:15.828Z,70.61
2023-02-10T01:21:25.772Z,70.53
2023-02-10T01:21:35.772Z,70.43
2023-02-10T01:21:45.783Z,70.40
2023-02-10T01:21:55.772Z,70.50
2023-02-10T01:22:05.789Z,70.50
2023-02-10T01:22:16.130Z,70.50
2023-02-10T01:22:25.763Z,70.53
2023-02-10T01:22:35.772Z,70.53
2023-02-10T01:22:45.767Z,70.61
2023-02-10T01:22:55.829Z,70.85
2023-02-10T01:23:05.836Z,70.85
2023-02-10T01:23:15.764Z,71.06
2023-02-10T01:23:25.864Z,71.16
2023-02-10T01:23:35.772Z,71.13
2023-02-10T01:23:45.763Z,71.26
2023-02-10T01:23:55.768Z,71.37
2023-02-10T01:24:05.758Z,71.37
2023-02-10T01:24:15.771Z,71.37
2023-02-10T01:24:25.817Z,71.48
2023-02-10T01:24:35.887Z,71.37
2023-02-10T01:24:45.844Z,71.37
2023-02-10T01:24:55.767Z,71.37
2023-02-10T01:25:05.760Z,71.37
2023-02-10T01:25:15.786Z,71.48
2023-02-10T01:25:25.778Z,71.54
2023-02-10T01:25:35.759Z,71.51
2023-02-10T01:25:46.021Z,71.26
2023-02-10T01:25:55.753Z,71.34
2023-02-10T01:26:05.764Z,71.16
2023-02-10T01:26:15.767Z,71.16
2023-02-10T01:26:25.757Z,71.20
2023-02-10T01:26:35.750Z,71.06
2023-02-10T01:26:45.757Z,71.06
2023-02-10T01:26:55.761Z,71.20
2023-02-10T01:27:05.769Z,71.20
2023-02-10T01:27:16.303Z,71.20
2023-02-10T01:27:25.757Z,71.26
2023-02-10T01:27:35.765Z,71.26
2023-02-10T01:27:45.783Z,71.26
2023-02-10T01:27:55.779Z,71.26
2023-02-10T01:28:05.764Z,71.37
2023-02-10T01:28:15.827Z,71.30
2023-02-10T01:28:25.802Z,71.41
2023-02-10T01:28:35.762Z,71.37
2023-02-10T01:28:45.882Z,71.41
2023-02-10T01:28:55.749Z,71.37
2023-02-10T01:29:05.748Z,71.37
2023-02-10T01:29:15.756Z,71.37
2023-02-10T01:29:25.734Z,71.41
2023-02-10T01:29:35.795Z,71.37
2023-02-10T01:29:45.738Z,71.26
2023-02-10T01:29:55.820Z,71.41
2023-02-10T01:30:05.783Z,71.37
2023-02-10T01:30:15.756Z,71.37
2023-02-10T01:30:25.730Z,71.48
2023-02-10T01:30:36.315Z,71.37
2023-02-10T01:30:45.730Z,71.37
2023-02-10T01:30:55.742Z,71.51
2023-02-10T01:31:05.727Z,71.37
2023-02-10T01:31:15.980Z,71.26
2023-02-10T01:31:25.770Z,71.20
2023-02-10T01:31:35.814Z,71.09
2023-02-10T01:31:45.843Z,71.09
2023-02-10T01:31:55.753Z,71.06
2023-02-10T01:32:05.736Z,71.06
2023-02-10T01:32:15.724Z,70.95
2023-02-10T01:32:25.749Z,70.85
2023-02-10T01:32:35.726Z,70.78
2023-02-10T01:32:45.724Z,70.88
2023-02-10T01:32:55.766Z,70.98
2023-02-10T01:33:05.747Z,70.95
2023-02-10T01:33:15.730Z,71.09
2023-02-10T01:33:26.313Z,71.06
2023-02-10T01:33:35.730Z,71.06
2023-02-10T01:33:45.739Z,71.30
2023-02-10T01:33:55.721Z,71.41
2023-02-10T01:34:05.723Z,71.44
2023-02-10T01:34:18.325Z,71.61
2023-02-10T01:34:25.716Z,71.61
2023-02-10T01:34:35.751Z,71.69
2023-02-10T01:34:45.766Z,71.55
2023-02-10T01:34:55.715Z,71.37
2023-02-10T01:35:05.716Z,71.41
2023-02-10T01:35:15.736Z,71.26
2023-02-10T01:35:25.714Z,71.20
2023-02-10T01:35:35.724Z,71.30
2023-02-10T01:35:46.229Z,71.26
2023-02-10T01:35:55.714Z,71.41
2023-02-10T01:36:05.722Z,71.26
2023-02-10T01:36:15.755Z,71.37
2023-02-10T01:36:25.715Z,71.37
2023-02-10T01:36:35.719Z,71.61
2023-02-10T01:36:45.715Z,71.79
2023-02-10T01:36:55.829Z,71.83
2023-02-10T01:37:06.329Z,71.93
2023-02-10T01:37:15.703Z,72.03
2023-02-10T01:37:25.706Z,72.00
2023-02-10T01:37:35.703Z,72.21
2023-02-10T01:37:45.710Z,72.24
2023-02-10T01:37:55.702Z,72.34
2023-02-10T01:38:05.718Z,72.31
2023-02-10T01:38:15.714Z,72.45
2023-02-10T01:38:25.716Z,72.42
2023-02-10T01:38:35.700Z,72.52
2023-02-10T01:38:45.722Z,72.42
2023-02-10T01:38:55.699Z,72.45
2023-02-10T01:39:05.739Z,72.56
2023-02-10T01:39:15.700Z,72.42
2023-02-10T01:39:25.706Z,72.45
2023-02-10T01:39:35.711Z,72.56
2023-02-10T01:39:45.769Z,72.56
2023-02-10T01:39:55.787Z,72.52
2023-02-10T01:40:05.702Z,72.56
2023-02-10T01:40:15.779Z,72.56
2023-02-10T01:40:25.697Z,72.63
2023-02-10T01:40:35.691Z,72.66
2023-02-10T01:40:45.726Z,72.69
2023-02-10T01:40:55.691Z,72.66
2023-02-10T01:41:05.689Z,72.66
2023-02-10T01:41:16.334Z,72.77
2023-02-10T01:41:25.718Z,72.66
2023-02-10T01:41:35.689Z,72.69
2023-02-10T01:41:45.687Z,72.66
2023-02-10T01:41:55.686Z,72.77
2023-02-10T01:42:05.693Z,72.77
2023-02-10T01:42:15.691Z,72.77
2023-02-10T01:42:25.693Z,72.87
2023-02-10T01:42:35.695Z,72.80
2023-02-10T01:42:45.680Z,72.77
2023-02-10T01:42:55.695Z,72.80
2023-02-10T01:43:05.709Z,72.77
2023-02-10T01:43:15.683Z,72.91
2023-02-10T01:43:25.691Z,72.87
2023-02-10T01:43:36.394Z,73.01
2023-02-10T01:43:45.801Z,73.19
2023-02-10T01:43:55.686Z,73.43
2023-02-10T01:44:05.764Z,73.54
2023-02-10T01:44:15.679Z,73.54
2023-02-10T01:44:25.681Z,73.74
2023-02-10T01:44:35.684Z,73.71
2023-02-10T01:44:45.684Z,73.82
2023-02-10T01:44:55.701Z,73.85
2023-02-10T01:45:05.714Z,73.85
2023-02-10T01:45:15.693Z,73.74
2023-02-10T01:45:26.324Z,73.74
2023-02-10T01:45:35.759Z,73.50
2023-02-10T01:45:46.005Z,73.54
2023-02-10T01:45:55.711Z,73.29
2023-02-10T01:46:05.749Z,73.19
2023-02-10T01:46:15.750Z,73.08
2023-02-10T01:46:25.675Z,73.04
2023-02-10T01:46:35.689Z,72.91
2023-02-10T01:46:46.340Z,72.77
2023-02-10T01:46:55.855Z,72.66
2023-02-10T01:47:05.670Z,72.59
2023-02-10T01:47:15.661Z,72.49
2023-02-10T01:47:25.680Z,72.49
2023-02-10T01:47:35.664Z,72.24
2023-02-10T01:47:45.667Z,72.34
2023-02-10T01:47:55.670Z,72.28
2023-02-10T01:48:05.681Z,72.24
2023-02-10T01:48:18.317Z,72.41
2023-02-10T01:48:25.668Z,72.45
2023-02-10T01:48:36.350Z,72.69
2023-02-10T01:48:45.741Z,72.91
2023-02-10T01:48:55.718Z,73.11
2023-02-10T01:49:05.665Z,73.29
2023-02-10T01:49:15.675Z,73.61
2023-02-10T01:49:25.662Z,73.85
2023-02-10T01:49:35.750Z,74.06
2023-02-10T01:49:45.686Z,74.16
2023-02-10T01:49:55.657Z,74.37
2023-02-10T01:50:05.653Z,74.37
2023-02-10T01:50:15.707Z,74.41
2023-02-10T01:50:25.858Z,74.24
2023-02-10T01:50:35.657Z,74.13
2023-02-10T01:50:45.647Z,73.96
2023-02-10T01:50:55.670Z,73.82
2023-02-10T01:51:05.746Z,73.71
2023-02-10T01:51:15.650Z,73.64
2023-02-10T01:51:25.649Z,73.43
2023-02-10T01:51:36.363Z,73.33
2023-02-10T01:51:45.679Z,73.25
2023-02-10T01:51:55.675Z,73.15
2023-02-10T01:52:05.659Z,73.15
2023-02-10T01:52:15.694Z,73.04
2023-02-10T01:52:26.308Z,73.01
2023-02-10T01:52:35.659Z,73.01
2023-02-10T01:52:45.640Z,73.01
2023-02-10T01:52:55.647Z,73.04
2023-02-10T01:53:05.645Z,73.15
2023-02-10T01:53:15.673Z,73.11
2023-02-10T01:53:25.646Z,73.22
2023-02-10T01:53:35.645Z,73.15
2023-02-10T01:53:45.664Z,73.08
2023-02-10T01:53:55.634Z,73.22
2023-02-10T01:54:05.654Z,73.22
2023-02-10T01:54:15.656Z,73.25
2023-02-10T01:54:25.641Z,73.33
2023-02-10T01:54:35.669Z,73.43
2023-02-10T01:54:45.679Z,73.43
2023-02-10T01:54:56.308Z,73.54
2023-02-10T01:55:05.648Z,73.74
2023-02-10T01:55:16.370Z,73.74
2023-02-10T01:55:25.692Z,73.74
2023-02-10T01:55:35.697Z,73.85
2023-02-10T01:55:45.966Z,73.71
2023-02-10T01:55:55.648Z,73.82
2023-02-10T01:56:05.674Z,73.82
2023-02-10T01:56:15.642Z,73.74
2023-02-10T01:56:25.623Z,73.71
2023-02-10T01:56:35.646Z,73.85
2023-02-10T01:56:45.633Z,73.85
2023-02-10T01:56:55.628Z,73.96
2023-02-10T01:57:05.649Z,74.16
2023-02-10T01:57:16.322Z,74.27
2023-02-10T01:57:26.324Z,74.48
2023-02-10T01:57:35.636Z,74.58
2023-02-10T01:57:45.623Z,74.58
2023-02-10T01:57:55.634Z,74.58
2023-02-10T01:58:05.691Z,74.69
2023-02-10T01:58:15.736Z,74.79
2023-02-10T01:58:25.633Z,74.69
2023-02-10T01:58:35.644Z,74.62
2023-02-10T01:58:45.685Z,74.69
2023-02-10T01:58:55.615Z,74.83
2023-02-10T01:59:05.619Z,74.79
2023-02-10T01:59:15.619Z,74.69
2023-02-10T01:59:26.331Z,74.58
2023-02-10T01:59:35.667Z,74.37
2023-02-10T01:59:45.627Z,74.20
2023-02-10T01:59:55.617Z,74.16
2023-02-10T02:00:05.619Z,74.20
2023-02-10T02:00:15.613Z,74.16
2023-02-10T02:00:25.624Z,74.20
2023-02-10T02:00:35.673Z,74.27
2023-02-10T02:00:45.674Z,74.27
2023-02-10T02:00:55.672Z,74.51
2023-02-10T02:01:05.630Z,74.62
2023-02-10T02:01:15.690Z,74.62
2023-02-10T02:01:25.726Z,74.58
2023-02-10T02:01:35.614Z,74.73
2023-02-10T02:01:45.611Z,74.62
2023-02-10T02:01:56.358Z,74.62
2023-02-10T02:02:05.649Z,74.73
2023-02-10T02:02:15.766Z,74.73
2023-02-10T02:02:25.622Z,74.73
2023-02-10T02:02:35.608Z,74.83
2023-02-10T02:02:45.623Z,74.73
2023-02-10T02:02:55.597Z,74.73
2023-02-10T02:03:05.621Z,74.83
2023-02-10T02:03:16.379Z,74.83
2023-02-10T02:03:25.599Z,74.83
2023-02-10T02:03:35.614Z,75.04
2023-02-10T02:03:46.309Z,75.04
2023-02-10T02:03:55.602Z,75.04
2023-02-10T02:04:05.597Z,75.14
2023-02-10T02:04:15.663Z,75.25
2023-02-10T02:04:25.602Z,75.25
2023-02-10T02:04:35.596Z,75.25
2023-02-10T02:04:45.609Z,75.28
2023-02-10T02:04:55.644Z,75.35
2023-02-10T02:05:05.756Z,75.28
2023-02-10T02:05:15.589Z,75.35
2023-02-10T02:05:25.605Z,75.35
2023-02-10T02:05:35.586Z,75.35
2023-02-10T02:05:46.034Z,75.46
2023-02-10T02:05:55.588Z,75.35
2023-02-10T02:06:05.604Z,75.35
2023-02-10T02:06:15.631Z,75.49
2023-02-10T02:06:26.315Z,75.49
2023-02-10T02:06:35.597Z,75.60
2023-02-10T02:06:45.586Z,75.67
2023-02-10T02:06:55.589Z,75.67
2023-02-10T02:07:05.599Z,75.67
2023-02-10T02:07:15.584Z,75.78
2023-02-10T02:07:25.584Z,75.91
2023-02-10T02:07:35.584Z,75.88
2023-02-10T02:07:46.312Z,75.91
2023-02-10T02:07:55.587Z,75.91
2023-02-10T02:08:05.580Z,76.02
2023-02-10T02:08:15.587Z,76.02
2023-02-10T02:08:25.590Z,75.88
2023-02-10T02:08:35.730Z,75.88
2023-02-10T02:08:45.580Z,75.81